createdAt,value
2022-12-22T00:00:00.487Z,97.2
2022-12-22T00:01:00.450Z,97.2
2022-12-22T00:02:00.586Z,97.2
2022-12-22T00:03:00.626Z,97.2
2022-12-22T00:04:00.632Z,97.2
2022-12-22T00:05:00.449Z,97.2
2022-12-22T00:06:00.488Z,97.2
2022-12-22T00:07:00.452Z,97.2
2022-12-22T00:08:00.481Z,97.2
2022-12-22T00:09:05.406Z,97.2
2022-12-22T00:10:00.456Z,97.3
2022-12-22T00:11:00.474Z,97.2
2022-12-22T00:12:00.448Z,97.3
2022-12-22T00:13:00.488Z,97.2
2022-12-22T00:14:00.503Z,97.2
2022-12-22T00:15:00.453Z,97.3
2022-12-22T00:16:00.469Z,97.2
2022-12-22T00:17:00.526Z,97.2
2022-12-22T00:18:00.496Z,97.2
2022-12-22T00:19:00.455Z,97.2
2022-12-22T00:20:00.477Z,97.2
2022-12-22T00:21:00.458Z,97.2
2022-12-22T00:22:00.459Z,97.3
2022-12-22T00:23:00.483Z,97.3
2022-12-22T00:24:00.476Z,97.2
2022-12-22T00:25:00.464Z,97.2
2022-12-22T00:26:00.488Z,97.2
2022-12-22T00:27:00.466Z,96.9
2022-12-22T00:28:00.487Z,97.2
2022-12-22T00:29:00.471Z,97.2
2022-12-22T00:30:00.533Z,97.2
2022-12-22T00:31:00.550Z,96.9
2022-12-22T00:32:00.472Z,97.2
2022-12-22T00:33:00.495Z,97.2
2022-12-22T00:34:00.472Z,97.3
2022-12-22T00:35:00.512Z,96.9
2022-12-22T00:36:00.495Z,96.9
2022-12-22T00:37:00.478Z,96.9
2022-12-22T00:38:00.498Z,97.2
2022-12-22T00:39:00.483Z,96.9
2022-12-22T00:40:00.502Z,96.9
2022-12-22T00:41:00.502Z,96.6
2022-12-22T00:42:00.507Z,96.6
2022-12-22T00:43:00.496Z,96.9
2022-12-22T00:44:00.478Z,96.6
2022-12-22T00:45:00.490Z,96.6
2022-12-22T00:46:00.665Z,96.9
2022-12-22T00:47:00.488Z,96.9
2022-12-22T00:48:00.535Z,96.9
2022-12-22T00:49:00.511Z,96.9
2022-12-22T00:50:00.500Z,96.9
2022-12-22T00:51:00.491Z,96.9
2022-12-22T00:52:00.498Z,96.6
2022-12-22T00:53:00.516Z,97.2
2022-12-22T00:54:00.520Z,96.9
2022-12-22T00:55:00.528Z,96.9
2022-12-22T00:56:00.518Z,96.6
2022-12-22T00:57:00.502Z,96.9
2022-12-22T00:58:00.512Z,97.2
2022-12-22T00:59:00.518Z,96.9
2022-12-22T01:00:00.502Z,97.2
2022-12-22T01:01:00.576Z,97.2
2022-12-22T01:02:00.665Z,97.2
2022-12-22T01:03:00.671Z,97.2
2022-12-22T01:04:00.527Z,97.2
2022-12-22T01:05:00.539Z,97.2
2022-12-22T01:06:00.507Z,97.2
2022-12-22T01:07:00.504Z,97.2
2022-12-22T01:08:00.519Z,97.2
2022-12-22T01:09:00.524Z,97.2
2022-12-22T01:10:00.507Z,97.2
2022-12-22T01:11:00.526Z,97.2
2022-12-22T01:12:00.532Z,96.9
2022-12-22T01:13:00.544Z,96.6
2022-12-22T01:14:00.509Z,96.9
2022-12-22T01:15:00.540Z,97.2
2022-12-22T01:16:00.613Z,97.2
2022-12-22T01:17:00.518Z,97.2
2022-12-22T01:18:00.588Z,97.2
2022-12-22T01:19:00.523Z,97.2
2022-12-22T01:20:00.575Z,97.2
2022-12-22T01:21:00.540Z,97.2
2022-12-22T01:22:00.515Z,96.9
2022-12-22T01:23:00.538Z,97.2
2022-12-22T01:24:00.540Z,97.2
2022-12-22T01:25:00.551Z,97.2
2022-12-22T01:26:00.540Z,96.9
2022-12-22T01:27:00.528Z,96.9
2022-12-22T01:28:00.557Z,97.2
2022-12-22T01:29:00.528Z,96.9
2022-12-22T01:30:00.546Z,96.9
2022-12-22T01:31:00.666Z,96.9
2022-12-22T01:32:00.539Z,96.6
2022-12-22T01:33:00.553Z,96.6
2022-12-22T01:34:00.543Z,96.9
2022-12-22T01:35:00.551Z,96.6
2022-12-22T01:36:00.560Z,96.9
2022-12-22T01:37:00.542Z,96.9
2022-12-22T01:38:00.540Z,96.9
2022-12-22T01:39:00.543Z,96.9
2022-12-22T01:40:00.579Z,96.9
2022-12-22T01:41:00.575Z,96.9
2022-12-22T01:42:00.549Z,96.6
2022-12-22T01:43:00.540Z,96.6
2022-12-22T01:44:00.544Z,96.6
2022-12-22T01:45:00.556Z,96.6
2022-12-22T01:46:00.610Z,96.9
2022-12-22T01:47:00.555Z,96.9
2022-12-22T01:48:00.577Z,96.9
2022-12-22T01:49:00.548Z,96.6
2022-12-22T01:50:00.594Z,96.9
2022-12-22T01:51:00.577Z,96.9
2022-12-22T01:52:00.547Z,96.6
2022-12-22T01:53:00.568Z,96.9
2022-12-22T01:54:00.585Z,97.2
2022-12-22T01:55:00.564Z,97.2
2022-12-22T01:56:00.580Z,96.9
2022-12-22T01:57:00.562Z,97.2
2022-12-22T01:58:00.575Z,97.2
2022-12-22T01:59:00.565Z,96.6
2022-12-22T02:00:00.664Z,97.2
2022-12-22T02:01:00.872Z,97.2
2022-12-22T02:02:00.763Z,96.9
2022-12-22T02:03:00.764Z,96.9
2022-12-22T02:04:00.662Z,96.6
2022-12-22T02:05:00.567Z,96.6
2022-12-22T02:06:00.626Z,96.6
2022-12-22T02:07:00.815Z,96.6
2022-12-22T02:08:00.571Z,96.6
2022-12-22T02:09:00.588Z,96.6
2022-12-22T02:10:00.589Z,96.6
2022-12-22T02:11:00.627Z,96.6
2022-12-22T02:12:00.581Z,96.6
2022-12-22T02:13:00.584Z,96.6
2022-12-22T02:14:00.606Z,96.6
2022-12-22T02:15:00.591Z,96.6
2022-12-22T02:16:00.681Z,96.6
2022-12-22T02:17:00.596Z,96.6
2022-12-22T02:18:00.583Z,96.9
2022-12-22T02:19:00.581Z,96.9
2022-12-22T02:20:00.591Z,97.2
2022-12-22T02:21:00.607Z,96.9
2022-12-22T02:22:00.596Z,97.2
2022-12-22T02:23:00.614Z,97.2
2022-12-22T02:24:00.613Z,97.2
2022-12-22T02:25:00.612Z,97.2
2022-12-22T02:26:00.630Z,97.2
2022-12-22T02:27:00.606Z,97.2
2022-12-22T02:28:00.595Z,97.2
2022-12-22T02:29:00.615Z,97.2
2022-12-22T02:30:00.604Z,97.2
2022-12-22T02:31:00.648Z,97.2
2022-12-22T02:32:00.601Z,97.2
2022-12-22T02:33:05.381Z,97.5
2022-12-22T02:34:00.615Z,97.5
2022-12-22T02:35:00.590Z,97.5
2022-12-22T02:36:00.626Z,97.2
2022-12-22T02:37:00.599Z,97.2
2022-12-22T02:38:00.602Z,97.5
2022-12-22T02:39:00.686Z,97.5
2022-12-22T02:40:01.644Z,97.5
2022-12-22T02:41:00.619Z,97.5
2022-12-22T02:42:00.614Z,97.5
2022-12-22T02:43:00.607Z,97.5
2022-12-22T02:44:00.627Z,97.5
2022-12-22T02:45:00.720Z,97.5
2022-12-22T02:46:00.620Z,97.5
2022-12-22T02:47:00.675Z,97.9
2022-12-22T02:48:00.722Z,97.9
2022-12-22T02:49:00.624Z,97.9
2022-12-22T02:50:00.642Z,97.8
2022-12-22T02:51:00.631Z,97.9
2022-12-22T02:52:00.614Z,97.9
2022-12-22T02:53:00.654Z,97.9
2022-12-22T02:54:00.685Z,97.9
2022-12-22T02:55:00.667Z,97.9
2022-12-22T02:56:00.710Z,97.9
2022-12-22T02:57:00.672Z,97.9
2022-12-22T02:58:00.624Z,97.9
2022-12-22T02:59:00.675Z,97.8
2022-12-22T03:00:01.679Z,97.8
2022-12-22T03:01:01.759Z,97.9
2022-12-22T03:02:01.880Z,97.9
2022-12-22T03:03:01.950Z,97.9
2022-12-22T03:04:01.713Z,97.9
2022-12-22T03:05:00.329Z,97.9
2022-12-22T03:06:00.363Z,97.9
2022-12-22T03:07:00.324Z,97.9
2022-12-22T03:08:06.116Z,97.9
2022-12-22T03:09:00.333Z,97.9
2022-12-22T03:10:00.393Z,97.9
2022-12-22T03:11:00.369Z,97.9
2022-12-22T03:12:00.370Z,97.9
2022-12-22T03:13:00.333Z,97.9
2022-12-22T03:14:00.333Z,98.2
2022-12-22T03:15:00.353Z,97.9
2022-12-22T03:16:00.402Z,97.9
2022-12-22T03:17:00.336Z,97.9
2022-12-22T03:18:00.334Z,97.8
2022-12-22T03:19:00.350Z,97.9
2022-12-22T03:20:00.388Z,97.9
2022-12-22T03:21:00.360Z,97.9
2022-12-22T03:22:00.342Z,97.9
2022-12-22T03:23:00.357Z,97.9
2022-12-22T03:24:00.351Z,97.9
2022-12-22T03:25:00.418Z,97.9
2022-12-22T03:26:00.365Z,97.9
2022-12-22T03:27:00.377Z,97.9
2022-12-22T03:28:00.401Z,97.9
2022-12-22T03:29:00.346Z,97.9
2022-12-22T03:30:00.352Z,97.9
2022-12-22T03:31:00.384Z,97.9
2022-12-22T03:32:00.461Z,97.6
2022-12-22T03:33:00.380Z,97.6
2022-12-22T03:34:00.372Z,97.9
2022-12-22T03:35:00.356Z,97.9
2022-12-22T03:36:00.363Z,97.9
2022-12-22T03:37:00.354Z,97.9
2022-12-22T03:38:00.411Z,97.9
2022-12-22T03:39:00.358Z,97.9
2022-12-22T03:40:00.358Z,97.9
2022-12-22T03:41:00.406Z,97.6
2022-12-22T03:42:00.392Z,97.6
2022-12-22T03:43:00.378Z,97.6
2022-12-22T03:44:00.394Z,97.6
2022-12-22T03:45:00.372Z,97.6
2022-12-22T03:46:00.360Z,97.6
2022-12-22T03:47:00.478Z,97.3
2022-12-22T03:48:00.385Z,97.3
2022-12-22T03:49:00.364Z,97.3
2022-12-22T03:50:00.376Z,97.3
2022-12-22T03:51:00.419Z,97.3
2022-12-22T03:52:00.380Z,97.3
2022-12-22T03:53:00.407Z,97.3
2022-12-22T03:54:00.391Z,97.3
2022-12-22T03:55:00.375Z,97
2022-12-22T03:56:07.222Z,97.3
2022-12-22T03:57:00.395Z,97.3
2022-12-22T03:58:00.400Z,97.3
2022-12-22T03:59:00.410Z,97
2022-12-22T04:00:00.403Z,97.3
2022-12-22T04:01:00.485Z,97
2022-12-22T04:02:00.633Z,97
2022-12-22T04:03:00.571Z,97
2022-12-22T04:04:00.409Z,97
2022-12-22T04:05:00.394Z,97
2022-12-22T04:06:00.415Z,96.7
2022-12-22T04:07:00.386Z,96.7
2022-12-22T04:08:00.401Z,96.7
2022-12-22T04:09:00.419Z,96.7
2022-12-22T04:10:00.404Z,96.7
2022-12-22T04:11:00.390Z,97
2022-12-22T04:12:00.446Z,97
2022-12-22T04:13:00.391Z,96.7
2022-12-22T04:14:00.411Z,97
2022-12-22T04:15:00.417Z,97
2022-12-22T04:16:00.452Z,96.7
2022-12-22T04:17:00.505Z,96.7
2022-12-22T04:18:00.415Z,96.7
2022-12-22T04:19:00.415Z,96.7
2022-12-22T04:20:00.397Z,96.7
2022-12-22T04:21:00.403Z,96.7
2022-12-22T04:22:00.415Z,96.7
2022-12-22T04:23:00.397Z,96.7
2022-12-22T04:24:00.441Z,96.7
2022-12-22T04:25:00.472Z,96.7
2022-12-22T04:26:00.423Z,96.7
2022-12-22T04:27:00.455Z,96.7
2022-12-22T04:28:00.409Z,96.7
2022-12-22T04:29:00.491Z,96.7
2022-12-22T04:30:00.425Z,96.7
2022-12-22T04:31:00.442Z,96.7
2022-12-22T04:32:00.562Z,96.7
2022-12-22T04:33:00.435Z,96.7
2022-12-22T04:34:00.439Z,96.7
2022-12-22T04:35:00.442Z,96.7
2022-12-22T04:36:00.429Z,96.7
2022-12-22T04:37:09.843Z,96.7
2022-12-22T04:38:00.435Z,96.7
2022-12-22T04:39:00.414Z,96.7
2022-12-22T04:40:00.421Z,96.7
2022-12-22T04:41:00.437Z,96.7
2022-12-22T04:42:00.434Z,96.7
2022-12-22T04:43:00.444Z,96.4
2022-12-22T04:44:00.423Z,96.7
2022-12-22T04:45:00.425Z,96.7
2022-12-22T04:46:00.518Z,96.7
2022-12-22T04:47:00.448Z,96.4
2022-12-22T04:48:00.442Z,96.7
2022-12-22T04:49:00.839Z,96.7
2022-12-22T04:50:00.437Z,96.7
2022-12-22T04:51:00.448Z,96.4
2022-12-22T04:52:00.434Z,96.4
2022-12-22T04:53:00.450Z,96.4
2022-12-22T04:54:00.444Z,96.4
2022-12-22T04:55:00.447Z,96.1
2022-12-22T04:56:00.452Z,96.4
2022-12-22T04:57:00.459Z,96.4
2022-12-22T04:58:00.450Z,96.4
2022-12-22T04:59:00.450Z,96.4
2022-12-22T05:00:00.600Z,96.1
2022-12-22T05:01:00.491Z,96.4
2022-12-22T05:02:00.601Z,96.1
2022-12-22T05:03:00.579Z,96.4
2022-12-22T05:04:00.465Z,96.1
2022-12-22T05:05:00.479Z,96.1
2022-12-22T05:06:00.472Z,96.1
2022-12-22T05:07:00.454Z,96.1
2022-12-22T05:08:00.445Z,96.1
2022-12-22T05:09:00.463Z,96.1
2022-12-22T05:10:00.448Z,96.1
2022-12-22T05:11:00.503Z,96.1
2022-12-22T05:12:00.477Z,95.8
2022-12-22T05:13:00.453Z,95.8
2022-12-22T05:14:06.807Z,95.8
2022-12-22T05:15:00.464Z,96.1
2022-12-22T05:16:00.479Z,96.1
2022-12-22T05:17:00.479Z,96.1
2022-12-22T05:18:00.485Z,96.1
2022-12-22T05:19:00.491Z,96.1
2022-12-22T05:20:00.467Z,95.8
2022-12-22T05:21:00.494Z,96.1
2022-12-22T05:22:00.494Z,96.1
2022-12-22T05:23:00.474Z,95.8
2022-12-22T05:24:00.491Z,96.1
2022-12-22T05:25:00.473Z,95.8
2022-12-22T05:26:00.497Z,95.8
2022-12-22T05:27:00.490Z,96.1
2022-12-22T05:28:00.485Z,96.1
2022-12-22T05:29:00.484Z,95.8
2022-12-22T05:30:00.489Z,95.8
2022-12-22T05:31:00.578Z,96.1
2022-12-22T05:32:00.477Z,96.1
2022-12-22T05:33:00.492Z,96.1
2022-12-22T05:34:00.497Z,96.1
2022-12-22T05:35:00.480Z,96.1
2022-12-22T05:36:00.504Z,96.1
2022-12-22T05:37:00.481Z,95.8
2022-12-22T05:38:00.481Z,96.1
2022-12-22T05:39:00.496Z,96.1
2022-12-22T05:40:00.493Z,96.1
2022-12-22T05:41:04.441Z,96.1
2022-12-22T05:42:00.481Z,96.1
2022-12-22T05:43:00.482Z,96.1
2022-12-22T05:44:00.506Z,96.1
2022-12-22T05:45:00.484Z,96.1
2022-12-22T05:46:00.583Z,96.1
2022-12-22T05:47:00.484Z,95.8
2022-12-22T05:48:00.506Z,96.1
2022-12-22T05:49:00.506Z,96.1
2022-12-22T05:50:00.519Z,96.1
2022-12-22T05:51:00.518Z,95.8
2022-12-22T05:52:00.499Z,96.1
2022-12-22T05:53:00.500Z,96.1
2022-12-22T05:54:00.537Z,96.1
2022-12-22T05:55:00.521Z,96.1
2022-12-22T05:56:00.515Z,95.8
2022-12-22T05:57:00.513Z,95.5
2022-12-22T05:58:00.496Z,96.1
2022-12-22T05:59:00.510Z,95.8
2022-12-22T06:00:00.522Z,95.8
2022-12-22T06:01:00.533Z,95.8
2022-12-22T06:02:00.651Z,96.1
2022-12-22T06:03:00.808Z,95.8
2022-12-22T06:04:00.967Z,95.8
2022-12-22T06:05:00.514Z,95.8
2022-12-22T06:06:00.539Z,95.8
2022-12-22T06:07:00.528Z,95.8
2022-12-22T06:08:00.513Z,95.8
2022-12-22T06:09:00.519Z,95.8
2022-12-22T06:10:02.688Z,96.1
2022-12-22T06:11:00.541Z,95.8
2022-12-22T06:12:00.531Z,95.8
2022-12-22T06:13:00.518Z,96.1
2022-12-22T06:14:00.538Z,95.8
2022-12-22T06:15:00.534Z,96.1
2022-12-22T06:16:00.608Z,96.1
2022-12-22T06:17:00.515Z,96.1
2022-12-22T06:18:00.680Z,96.1
2022-12-22T06:19:00.538Z,96.1
2022-12-22T06:20:00.524Z,96.1
2022-12-22T06:21:00.567Z,95.8
2022-12-22T06:22:00.526Z,95.8
2022-12-22T06:23:00.572Z,95.8
2022-12-22T06:24:00.522Z,95.5
2022-12-22T06:25:00.522Z,95.5
2022-12-22T06:26:00.550Z,95.5
2022-12-22T06:27:00.538Z,95.2
2022-12-22T06:28:00.554Z,95.2
2022-12-22T06:29:00.543Z,94.8
2022-12-22T06:30:00.557Z,95.1
2022-12-22T06:31:00.618Z,95.1
2022-12-22T06:32:00.591Z,95.1
2022-12-22T06:33:00.565Z,94.8
2022-12-22T06:34:00.623Z,94.8
2022-12-22T06:35:00.657Z,94.8
2022-12-22T06:36:01.443Z,94.5
2022-12-22T06:37:00.670Z,94.2
2022-12-22T06:38:00.629Z,94.2
2022-12-22T06:39:00.635Z,94.2
2022-12-22T06:40:00.644Z,94.2
2022-12-22T06:41:00.671Z,93.9
2022-12-22T06:42:00.658Z,93.9
2022-12-22T06:43:07.854Z,93.9
2022-12-22T06:44:00.681Z,93.9
2022-12-22T06:45:00.637Z,93.9
2022-12-22T06:46:00.747Z,93.9
2022-12-22T06:47:00.738Z,93.9
2022-12-22T06:48:00.652Z,93.9
2022-12-22T06:49:00.731Z,94.2
2022-12-22T06:50:00.631Z,93.8
2022-12-22T06:51:00.706Z,93.9
2022-12-22T06:52:00.664Z,93.9
2022-12-22T06:53:00.654Z,94.1
2022-12-22T06:54:00.691Z,94.2
2022-12-22T06:55:00.612Z,94.5
2022-12-22T06:56:00.657Z,94.5
2022-12-22T06:57:00.644Z,94.5
2022-12-22T06:58:00.719Z,94.8
2022-12-22T06:59:00.816Z,94.5
2022-12-22T07:00:00.572Z,94.5
2022-12-22T07:01:00.621Z,94.8
2022-12-22T07:02:00.778Z,94.8
2022-12-22T07:03:00.921Z,94.8
2022-12-22T07:04:00.691Z,94.8
2022-12-22T07:05:00.569Z,94.8
2022-12-22T07:06:00.609Z,94.8
2022-12-22T07:07:00.613Z,94.8
2022-12-22T07:08:07.641Z,94.8
2022-12-22T07:09:00.570Z,95.1
2022-12-22T07:10:00.583Z,94.8
2022-12-22T07:11:00.613Z,95.1
2022-12-22T07:12:00.607Z,94.8
2022-12-22T07:13:00.578Z,95.1
2022-12-22T07:14:00.604Z,95.4
2022-12-22T07:15:00.574Z,95.4
2022-12-22T07:16:01.755Z,95.1
2022-12-22T07:17:00.597Z,95.1
2022-12-22T07:18:00.594Z,94.8
2022-12-22T07:19:00.601Z,94.8
2022-12-22T07:20:00.644Z,95.1
2022-12-22T07:21:00.607Z,94.8
2022-12-22T07:22:00.616Z,95.1
2022-12-22T07:23:00.587Z,95.1
2022-12-22T07:24:00.604Z,95.1
2022-12-22T07:25:00.600Z,95.1
2022-12-22T07:26:00.645Z,95.1
2022-12-22T07:27:00.613Z,95.1
2022-12-22T07:28:00.630Z,95.1
2022-12-22T07:29:00.624Z,95.1
2022-12-22T07:30:00.639Z,95.2
2022-12-22T07:31:00.690Z,95.1
2022-12-22T07:32:00.623Z,95.1
2022-12-22T07:33:00.596Z,95.1
2022-12-22T07:34:00.621Z,95.5
2022-12-22T07:35:05.195Z,95.4
2022-12-22T07:36:00.612Z,95.4
2022-12-22T07:37:00.618Z,95.5
2022-12-22T07:38:00.619Z,95.5
2022-12-22T07:39:00.602Z,95.1
2022-12-22T07:40:00.611Z,95.5
2022-12-22T07:41:04.999Z,95.2
2022-12-22T07:42:00.636Z,94.8
2022-12-22T07:43:00.629Z,94.8
2022-12-22T07:44:00.645Z,94.8
2022-12-22T07:45:00.611Z,94.5
2022-12-22T07:46:00.735Z,94.2
2022-12-22T07:47:00.712Z,93.9
2022-12-22T07:48:00.633Z,93.6
2022-12-22T07:49:00.639Z,93.3
2022-12-22T07:50:00.625Z,93.6
2022-12-22T07:51:00.634Z,93.3
2022-12-22T07:52:00.637Z,93
2022-12-22T07:53:00.620Z,93
2022-12-22T07:54:00.641Z,93
2022-12-22T07:55:00.628Z,93
2022-12-22T07:56:00.657Z,92.7
2022-12-22T07:57:00.658Z,92.7
2022-12-22T07:58:00.639Z,92.4
2022-12-22T07:59:00.643Z,92.4
2022-12-22T08:00:00.621Z,92.4
2022-12-22T08:01:00.631Z,92.4
2022-12-22T08:02:00.828Z,92.4
2022-12-22T08:03:00.794Z,92.1
2022-12-22T08:04:00.650Z,91.8
2022-12-22T08:05:00.760Z,91.8
2022-12-22T08:06:01.164Z,91.8
2022-12-22T08:07:01.186Z,91.1
2022-12-22T08:08:01.101Z,91.1
2022-12-22T08:09:01.013Z,91.2
2022-12-22T08:10:00.638Z,91.4
2022-12-22T08:11:00.646Z,91.2
2022-12-22T08:12:00.661Z,90.8
2022-12-22T08:13:00.723Z,90.9
2022-12-22T08:14:01.857Z,90.5
2022-12-22T08:15:00.648Z,90.6
2022-12-22T08:16:00.697Z,89.9
2022-12-22T08:17:00.720Z,89.9
2022-12-22T08:18:00.684Z,89.9
2022-12-22T08:19:00.667Z,90.2
2022-12-22T08:20:00.650Z,90.2
2022-12-22T08:21:00.669Z,89.9
2022-12-22T08:22:00.680Z,89.9
2022-12-22T08:23:00.668Z,89.9
2022-12-22T08:24:00.657Z,90.2
2022-12-22T08:25:00.659Z,90.5
2022-12-22T08:26:00.669Z,90.6
2022-12-22T08:27:01.042Z,90.5
2022-12-22T08:28:00.990Z,90.5
2022-12-22T08:29:01.003Z,90.5
2022-12-22T08:30:01.071Z,90.5
2022-12-22T08:31:01.280Z,90.6
2022-12-22T08:32:01.213Z,90.9
2022-12-22T08:33:01.030Z,91.2
2022-12-22T08:34:00.709Z,91.2
2022-12-22T08:35:00.661Z,91.2
2022-12-22T08:36:07.529Z,91.2
2022-12-22T08:37:01.070Z,91.2
2022-12-22T08:38:00.675Z,91.2
2022-12-22T08:39:00.663Z,91.2
2022-12-22T08:40:00.665Z,91.2
2022-12-22T08:41:00.702Z,91.5
2022-12-22T08:42:00.683Z,91.2
2022-12-22T08:43:00.672Z,91.5
2022-12-22T08:44:00.670Z,91.5
2022-12-22T08:45:00.665Z,91.5
2022-12-22T08:46:00.710Z,91.5
2022-12-22T08:47:00.716Z,91.5
2022-12-22T08:48:00.685Z,91.5
2022-12-22T08:49:00.704Z,91.2
2022-12-22T08:50:00.687Z,91.2
2022-12-22T08:51:00.725Z,91.2
2022-12-22T08:52:00.730Z,90.9
2022-12-22T08:53:00.691Z,90.9
2022-12-22T08:54:05.918Z,90.9
2022-12-22T08:55:00.705Z,91.2
2022-12-22T08:56:00.714Z,90.9
2022-12-22T08:57:00.697Z,91.2
2022-12-22T08:58:00.685Z,91.2
2022-12-22T08:59:00.702Z,91.2
2022-12-22T09:00:00.698Z,91.9
2022-12-22T09:01:00.753Z,91.9
2022-12-22T09:02:00.907Z,92.2
2022-12-22T09:03:00.880Z,91.9
2022-12-22T09:04:01.319Z,91.9
2022-12-22T09:05:02.012Z,91.9
2022-12-22T09:06:01.126Z,91.5
2022-12-22T09:07:01.226Z,91.5
2022-12-22T09:08:00.859Z,91.2
2022-12-22T09:09:00.564Z,91.2
2022-12-22T09:10:00.531Z,91.3
2022-12-22T09:11:00.518Z,91.2
2022-12-22T09:12:00.475Z,90.9
2022-12-22T09:13:00.444Z,90.6
2022-12-22T09:14:00.425Z,90.6
2022-12-22T09:15:00.400Z,90.6
2022-12-22T09:16:00.460Z,90.6
2022-12-22T09:17:00.476Z,90.6
2022-12-22T09:18:00.301Z,90.3
2022-12-22T09:19:00.283Z,90.4
2022-12-22T09:20:00.299Z,90
2022-12-22T09:21:00.229Z,89.7
2022-12-22T09:22:00.251Z,90.1
2022-12-22T09:23:00.242Z,89.8
2022-12-22T09:24:00.216Z,89.8
2022-12-22T09:25:00.228Z,89.5
2022-12-22T09:26:00.232Z,89.1
2022-12-22T09:27:00.221Z,88.8
2022-12-22T09:28:00.232Z,88.8
2022-12-22T09:29:00.228Z,88.8
2022-12-22T09:30:00.256Z,88.8
2022-12-22T09:31:00.251Z,88.8
2022-12-22T09:32:00.322Z,88.8
2022-12-22T09:33:00.255Z,88.8
2022-12-22T09:34:00.271Z,88.8
2022-12-22T09:35:00.270Z,88.2
2022-12-22T09:36:00.245Z,88.2
2022-12-22T09:37:00.246Z,88.5
2022-12-22T09:38:00.237Z,88.8
2022-12-22T09:39:00.257Z,88.8
2022-12-22T09:40:00.255Z,88.9
2022-12-22T09:41:00.238Z,88.8
2022-12-22T09:42:00.245Z,88.8
2022-12-22T09:43:00.248Z,88.8
2022-12-22T09:44:00.244Z,88.2
2022-12-22T09:45:00.279Z,88.5
2022-12-22T09:46:00.286Z,88.2
2022-12-22T09:47:00.267Z,88.2
2022-12-22T09:48:00.249Z,87.9
2022-12-22T09:49:00.255Z,87.9
2022-12-22T09:50:00.280Z,88.2
2022-12-22T09:51:00.255Z,88.2
2022-12-22T09:52:00.300Z,87.6
2022-12-22T09:53:00.269Z,87.6
2022-12-22T09:54:00.853Z,87.9
2022-12-22T09:55:00.711Z,87.6
2022-12-22T09:56:00.737Z,87.9
2022-12-22T09:57:00.678Z,87.6
2022-12-22T09:58:00.256Z,87.6
2022-12-22T09:59:00.340Z,87.3
2022-12-22T10:00:00.296Z,87.6
2022-12-22T10:01:00.331Z,87.6
2022-12-22T10:02:00.350Z,87.6
2022-12-22T10:03:00.331Z,87.6
2022-12-22T10:04:01.143Z,87.9
2022-12-22T10:05:00.333Z,87.6
2022-12-22T10:06:00.297Z,87.6
2022-12-22T10:07:00.268Z,87.3
2022-12-22T10:08:00.268Z,87
2022-12-22T10:09:00.275Z,87
2022-12-22T10:10:00.283Z,87
2022-12-22T10:11:00.290Z,86.7
2022-12-22T10:12:00.278Z,87
2022-12-22T10:13:00.269Z,86.4
2022-12-22T10:14:00.285Z,86.7
2022-12-22T10:15:00.330Z,86.4
2022-12-22T10:16:00.295Z,86.4
2022-12-22T10:17:00.317Z,86.4
2022-12-22T10:18:00.275Z,86.4
2022-12-22T10:19:00.291Z,85.2
2022-12-22T10:20:00.316Z,85.2
2022-12-22T10:21:00.300Z,84.5
2022-12-22T10:22:00.292Z,84.6
2022-12-22T10:23:00.282Z,84.2
2022-12-22T10:24:00.302Z,84.5
2022-12-22T10:25:00.286Z,83.9
2022-12-22T10:26:27.440Z,83.9
2022-12-22T10:27:00.302Z,83.3
2022-12-22T10:28:00.287Z,83.6
2022-12-22T10:29:00.346Z,83.9
2022-12-22T10:30:00.354Z,83.3
2022-12-22T10:31:00.331Z,83.6
2022-12-22T10:32:00.396Z,83.3
2022-12-22T10:33:00.299Z,82.7
2022-12-22T10:34:00.304Z,83.3
2022-12-22T10:35:00.347Z,83.6
2022-12-22T10:36:00.341Z,83.3
2022-12-22T10:37:00.311Z,83.3
2022-12-22T10:38:00.303Z,82.7
2022-12-22T10:39:00.298Z,82.4
2022-12-22T10:40:00.315Z,81.8
2022-12-22T10:41:02.503Z,82.1
2022-12-22T10:42:00.340Z,82.1
2022-12-22T10:43:00.356Z,81.8
2022-12-22T10:44:00.333Z,81.8
2022-12-22T10:45:00.307Z,81.2
2022-12-22T10:46:00.417Z,81.2
2022-12-22T10:47:00.356Z,81.5
2022-12-22T10:48:00.342Z,80.9
2022-12-22T10:49:00.330Z,80.8
2022-12-22T10:51:00.336Z,80.5
2022-12-22T10:52:00.315Z,80.5
2022-12-22T10:53:00.349Z,79.9
2022-12-22T10:54:00.342Z,79.9
2022-12-22T10:55:00.349Z,79.9
2022-12-22T10:56:00.363Z,80.5
2022-12-22T10:57:00.326Z,80.5
2022-12-22T10:58:05.246Z,80.2
2022-12-22T10:59:00.341Z,80.2
2022-12-22T11:00:00.390Z,79.5
2022-12-22T11:01:00.415Z,80.2
2022-12-22T11:02:00.568Z,80.2
2022-12-22T11:03:00.769Z,80.2
2022-12-22T11:04:00.436Z,80.5
2022-12-22T11:05:00.383Z,80.8
2022-12-22T11:06:00.340Z,80.5
2022-12-22T11:07:00.353Z,79.9
2022-12-22T11:08:00.347Z,80.2
2022-12-22T11:09:31.441Z,79.5
2022-12-22T11:10:00.425Z,80.8
2022-12-22T11:11:00.351Z,80.2
2022-12-22T11:12:00.327Z,79.9
2022-12-22T11:13:00.356Z,79.6
2022-12-22T11:14:00.365Z,79.9
2022-12-22T11:15:00.360Z,79.9
2022-12-22T11:16:00.361Z,80.2
2022-12-22T11:17:00.428Z,79.6
2022-12-22T11:18:00.357Z,78.7
2022-12-22T11:19:00.376Z,79
2022-12-22T11:20:00.348Z,78.3
2022-12-22T11:21:00.392Z,79
2022-12-22T11:22:00.352Z,78.9
2022-12-22T11:23:00.367Z,78.3
2022-12-22T11:24:00.381Z,78.9
2022-12-22T11:25:00.378Z,79
2022-12-22T11:26:01.114Z,78.3
2022-12-22T11:27:00.788Z,79.3
2022-12-22T11:28:00.784Z,79.6
2022-12-22T11:29:00.923Z,79.6
2022-12-22T11:30:00.689Z,79
2022-12-22T11:31:00.502Z,79
2022-12-22T11:32:00.380Z,78.6
2022-12-22T11:33:00.376Z,78
2022-12-22T11:34:00.371Z,78
2022-12-22T11:35:00.384Z,77.4
2022-12-22T11:36:00.390Z,78.3
2022-12-22T11:37:00.397Z,78
2022-12-22T11:38:00.374Z,77.4
2022-12-22T11:39:00.383Z,77.4
2022-12-22T11:40:00.475Z,77.1
2022-12-22T11:41:00.389Z,77.1
2022-12-22T11:42:00.364Z,76.7
2022-12-22T11:43:00.384Z,77.1
2022-12-22T11:44:00.394Z,77.7
2022-12-22T11:45:00.375Z,77.1
2022-12-22T11:46:00.396Z,77.1
2022-12-22T11:47:00.394Z,76.8
2022-12-22T11:48:00.390Z,76.8
2022-12-22T11:49:00.392Z,76.4
2022-12-22T11:50:57.506Z,76.4
2022-12-22T11:51:08.042Z,76.8
2022-12-22T11:52:00.379Z,76.4
2022-12-22T11:53:00.408Z,76.4
2022-12-22T11:54:05.392Z,76.4
2022-12-22T11:55:00.406Z,77.1
2022-12-22T11:56:00.399Z,77.1
2022-12-22T11:57:00.385Z,76.7
2022-12-22T11:58:00.378Z,76.4
2022-12-22T11:59:00.403Z,77.1
2022-12-22T12:00:00.403Z,77.1
2022-12-22T12:01:17.585Z,77.4
2022-12-22T12:02:00.535Z,77.1
2022-12-22T12:03:00.496Z,77.1
2022-12-22T12:04:00.534Z,77.7
2022-12-22T12:05:00.405Z,77.4
2022-12-22T12:06:00.402Z,78.3
2022-12-22T12:07:00.407Z,77.1
2022-12-22T12:08:00.403Z,77.4
2022-12-22T12:09:00.426Z,77.7
2022-12-22T12:10:00.400Z,77.7
2022-12-22T12:11:00.419Z,77.7
2022-12-22T12:12:00.433Z,78.3
2022-12-22T12:13:00.455Z,77.7
2022-12-22T12:14:00.457Z,77.1
2022-12-22T12:15:00.453Z,77.7
2022-12-22T12:16:00.448Z,77.1
2022-12-22T12:17:00.419Z,76.8
2022-12-22T12:18:01.036Z,77.1
2022-12-22T12:19:00.512Z,76.5
2022-12-22T12:20:00.466Z,76.5
2022-12-22T12:21:00.424Z,76.5
2022-12-22T12:22:00.427Z,76.5
2022-12-22T12:23:00.442Z,75.9
2022-12-22T12:24:00.433Z,76.5
2022-12-22T12:25:00.617Z,76.8
2022-12-22T12:26:00.535Z,76.2
2022-12-22T12:27:00.509Z,76.5
2022-12-22T12:28:00.514Z,76.5
2022-12-22T12:29:00.595Z,75.9
2022-12-22T12:30:36.374Z,76.8
2022-12-22T12:31:00.562Z,76.5
2022-12-22T12:32:00.714Z,76.8
2022-12-22T12:33:01.265Z,76.8
2022-12-22T12:34:00.779Z,77.1
2022-12-22T12:35:00.468Z,77.8
2022-12-22T12:36:00.438Z,77.1
2022-12-22T12:37:00.440Z,77.4
2022-12-22T12:38:00.423Z,77.7
2022-12-22T12:39:09.145Z,77.7
2022-12-22T12:40:00.494Z,77.1
2022-12-22T12:41:00.475Z,77.1
2022-12-22T12:42:00.438Z,77.4
2022-12-22T12:43:00.440Z,77.1
2022-12-22T12:44:00.475Z,77.4
2022-12-22T12:45:00.488Z,76.4
2022-12-22T12:46:00.449Z,77.1
2022-12-22T12:47:00.485Z,77.1
2022-12-22T12:48:00.446Z,77.4
2022-12-22T12:49:00.451Z,77.1
2022-12-22T12:50:00.445Z,77.1
2022-12-22T12:51:00.457Z,77.1
2022-12-22T12:52:00.428Z,77.1
2022-12-22T12:53:00.460Z,77.1
2022-12-22T12:54:00.455Z,77.1
2022-12-22T12:55:00.463Z,77.7
2022-12-22T12:56:00.456Z,77.7
2022-12-22T12:57:00.438Z,77.1
2022-12-22T12:58:00.440Z,77.7
2022-12-22T12:59:00.457Z,77
2022-12-22T13:00:00.543Z,77.4
2022-12-22T13:01:00.504Z,77
2022-12-22T13:02:00.698Z,77.1
2022-12-22T13:03:00.686Z,77.7
2022-12-22T13:04:04.147Z,77.4
2022-12-22T13:05:00.465Z,76.4
2022-12-22T13:06:00.474Z,76.8
2022-12-22T13:07:00.463Z,76.8
2022-12-22T13:08:00.500Z,77.1
2022-12-22T13:09:22.278Z,77.1
2022-12-22T13:10:00.477Z,76.8
2022-12-22T13:11:00.457Z,76.4
2022-12-22T13:12:13.122Z,76.1
2022-12-22T13:13:00.489Z,76.4
2022-12-22T13:14:00.520Z,75.8
2022-12-22T13:15:00.475Z,75.8
2022-12-22T13:16:00.636Z,76.5
2022-12-22T13:17:00.468Z,76.5
2022-12-22T13:18:00.622Z,76.1
2022-12-22T13:19:00.471Z,75.8
2022-12-22T13:20:00.494Z,75.2
2022-12-22T13:21:33.873Z,75.2